sensor_id;sensor_type;location;lat;lon;timestamp;P1;durP1;ratioP1;P2;durP2;ratioP2
22026;SDS011;11177;50.966;10.070;2023-05-07T00:01:29;43.78;;;27.95;;
22026;SDS011;11177;50.966;10.070;2023-05-07T00:03:56;46.30;;;29.33;;
22026;SDS011;11177;50.966;10.070;2023-05-07T00:06:23;42.53;;;27.58;;
22026;SDS011;11177;50.966;10.070;2023-05-07T00:08:50;46.17;;;28.67;;
22026;SDS011;11177;50.966;10.070;2023-05-07T00:11:17;44.63;;;28.27;;
22026;SDS011;11177;50.966;10.070;2023-05-07T00:13:44;45.15;;;29.30;;
22026;SDS011;11177;50.966;10.070;2023-05-07T00:16:11;43.83;;;28.70;;
22026;SDS011;11177;50.966;10.070;2023-05-07T00:18:37;43.97;;;29.65;;
22026;SDS011;11177;50.966;10.070;2023-05-07T00:21:04;42.70;;;28.67;;
22026;SDS011;11177;50.966;10.070;2023-05-07T00:23:31;48.17;;;30.88;;
22026;SDS011;11177;50.966;10.070;2023-05-07T00:25:58;50.25;;;31.88;;
22026;SDS011;11177;50.966;10.070;2023-05-07T00:28:25;45.95;;;29.40;;
22026;SDS011;11177;50.966;10.070;2023-05-07T00:30:52;49.47;;;30.55;;
22026;SDS011;11177;50.966;10.070;2023-05-07T00:33:19;52.78;;;33.15;;
22026;SDS011;11177;50.966;10.070;2023-05-07T00:35:47;50.38;;;31.98;;
22026;SDS011;11177;50.966;10.070;2023-05-07T00:38:14;48.97;;;30.88;;
22026;SDS011;11177;50.966;10.070;2023-05-07T00:40:41;51.97;;;33.45;;
22026;SDS011;11177;50.966;10.070;2023-05-07T00:43:08;54.60;;;33.25;;
22026;SDS011;11177;50.966;10.070;2023-05-07T00:45:35;54.35;;;33.30;;
22026;SDS011;11177;50.966;10.070;2023-05-07T00:48:02;54.05;;;34.35;;
22026;SDS011;11177;50.966;10.070;2023-05-07T00:50:29;58.35;;;34.88;;
22026;SDS011;11177;50.966;10.070;2023-05-07T00:52:57;57.90;;;34.00;;
22026;SDS011;11177;50.966;10.070;2023-05-07T00:55:25;58.35;;;33.28;;
22026;SDS011;11177;50.966;10.070;2023-05-07T00:57:52;56.00;;;33.92;;
22026;SDS011;11177;50.966;10.070;2023-05-07T01:02:54;58.63;;;35.80;;
22026;SDS011;11177;50.966;10.070;2023-05-07T01:05:21;58.55;;;33.38;;
22026;SDS011;11177;50.966;10.070;2023-05-07T01:07:49;60.65;;;34.63;;
22026;SDS011;11177;50.966;10.070;2023-05-07T01:10:16;57.85;;;34.53;;
22026;SDS011;11177;50.966;10.070;2023-05-07T01:12:43;60.15;;;34.97;;
22026;SDS011;11177;50.966;10.070;2023-05-07T01:15:12;57.97;;;35.28;;
22026;SDS011;11177;50.966;10.070;2023-05-07T01:17:39;58.20;;;35.65;;
22026;SDS011;11177;50.966;10.070;2023-05-07T01:20:07;59.55;;;34.80;;
22026;SDS011;11177;50.966;10.070;2023-05-07T01:22:37;59.58;;;35.08;;
22026;SDS011;11177;50.966;10.070;2023-05-07T01:25:05;57.80;;;33.85;;
22026;SDS011;11177;50.966;10.070;2023-05-07T01:27:33;59.10;;;33.38;;
22026;SDS011;11177;50.966;10.070;2023-05-07T01:30:01;62.00;;;35.75;;
22026;SDS011;11177;50.966;10.070;2023-05-07T01:32:40;61.13;;;35.55;;
22026;SDS011;11177;50.966;10.070;2023-05-07T01:35:10;58.30;;;32.70;;
22026;SDS011;11177;50.966;10.070;2023-05-07T01:37:39;57.83;;;34.17;;
22026;SDS011;11177;50.966;10.070;2023-05-07T01:40:06;56.88;;;33.65;;
22026;SDS011;11177;50.966;10.070;2023-05-07T01:42:34;59.67;;;33.45;;
22026;SDS011;11177;50.966;10.070;2023-05-07T01:45:01;55.63;;;31.92;;
22026;SDS011;11177;50.966;10.070;2023-05-07T01:47:29;55.20;;;33.70;;
22026;SDS011;11177;50.966;10.070;2023-05-07T01:49:56;55.15;;;32.60;;
22026;SDS011;11177;50.966;10.070;2023-05-07T01:52:23;56.53;;;32.97;;
22026;SDS011;11177;50.966;10.070;2023-05-07T01:54:51;54.08;;;31.15;;
22026;SDS011;11177;50.966;10.070;2023-05-07T01:57:18;54.15;;;32.65;;
22026;SDS011;11177;50.966;10.070;2023-05-07T01:59:45;57.22;;;32.13;;
22026;SDS011;11177;50.966;10.070;2023-05-07T02:02:11;53.25;;;31.60;;
22026;SDS011;11177;50.966;10.070;2023-05-07T02:04:38;54.75;;;32.88;;
22026;SDS011;11177;50.966;10.070;2023-05-07T02:07:05;55.28;;;33.03;;
22026;SDS011;11177;50.966;10.070;2023-05-07T02:09:32;53.05;;;32.15;;
22026;SDS011;11177;50.966;10.070;2023-05-07T02:11:59;57.80;;;31.65;;
22026;SDS011;11177;50.966;10.070;2023-05-07T02:14:26;54.17;;;32.33;;
22026;SDS011;11177;50.966;10.070;2023-05-07T02:16:52;51.65;;;30.75;;
22026;SDS011;11177;50.966;10.070;2023-05-07T02:19:19;52.00;;;30.95;;
22026;SDS011;11177;50.966;10.070;2023-05-07T02:21:47;54.35;;;31.23;;
22026;SDS011;11177;50.966;10.070;2023-05-07T02:24:14;49.85;;;30.90;;
22026;SDS011;11177;50.966;10.070;2023-05-07T02:26:41;50.38;;;30.05;;
22026;SDS011;11177;50.966;10.070;2023-05-07T02:29:08;51.22;;;30.80;;
22026;SDS011;11177;50.966;10.070;2023-05-07T02:31:34;54.58;;;31.25;;
22026;SDS011;11177;50.966;10.070;2023-05-07T02:34:01;53.03;;;31.33;;
22026;SDS011;11177;50.966;10.070;2023-05-07T02:36:28;53.33;;;32.45;;
22026;SDS011;11177;50.966;10.070;2023-05-07T02:38:55;54.08;;;31.63;;
22026;SDS011;11177;50.966;10.070;2023-05-07T02:41:22;52.72;;;30.92;;
22026;SDS011;11177;50.966;10.070;2023-05-07T02:43:48;54.25;;;31.85;;
22026;SDS011;11177;50.966;10.070;2023-05-07T02:46:15;59.38;;;31.45;;
22026;SDS011;11177;50.966;10.070;2023-05-07T02:48:42;56.72;;;32.47;;
22026;SDS011;11177;50.966;10.070;2023-05-07T02:51:09;57.28;;;33.17;;
22026;SDS011;11177;50.966;10.070;2023-05-07T02:53:36;61.17;;;32.85;;
22026;SDS011;11177;50.966;10.070;2023-05-07T02:56:03;56.72;;;32.42;;
22026;SDS011;11177;50.966;10.070;2023-05-07T02:58:30;51.83;;;30.10;;
22026;SDS011;11177;50.966;10.070;2023-05-07T03:00:57;56.47;;;32.55;;
22026;SDS011;11177;50.966;10.070;2023-05-07T03:03:24;56.35;;;31.35;;
22026;SDS011;11177;50.966;10.070;2023-05-07T03:05:51;59.47;;;32.08;;
22026;SDS011;11177;50.966;10.070;2023-05-07T03:08:17;58.75;;;30.70;;
22026;SDS011;11177;50.966;10.070;2023-05-07T03:10:44;53.75;;;31.25;;
22026;SDS011;11177;50.966;10.070;2023-05-07T03:13:11;54.47;;;30.77;;
22026;SDS011;11177;50.966;10.070;2023-05-07T03:15:38;51.78;;;31.00;;
22026;SDS011;11177;50.966;10.070;2023-05-07T03:18:05;52.95;;;30.10;;
22026;SDS011;11177;50.966;10.070;2023-05-07T03:20:32;52.40;;;30.30;;
22026;SDS011;11177;50.966;10.070;2023-05-07T03:22:59;51.33;;;30.40;;
22026;SDS011;11177;50.966;10.070;2023-05-07T03:25:25;51.30;;;29.60;;
22026;SDS011;11177;50.966;10.070;2023-05-07T03:27:52;49.45;;;27.85;;
22026;SDS011;11177;50.966;10.070;2023-05-07T03:30:19;53.25;;;28.83;;
22026;SDS011;11177;50.966;10.070;2023-05-07T03:32:46;53.20;;;28.52;;
22026;SDS011;11177;50.966;10.070;2023-05-07T03:35:13;55.40;;;29.45;;
22026;SDS011;11177;50.966;10.070;2023-05-07T03:37:40;52.03;;;28.23;;
22026;SDS011;11177;50.966;10.070;2023-05-07T03:40:07;53.42;;;29.10;;
22026;SDS011;11177;50.966;10.070;2023-05-07T03:42:37;54.08;;;29.33;;
22026;SDS011;11177;50.966;10.070;2023-05-07T03:45:04;55.38;;;28.75;;
22026;SDS011;11177;50.966;10.070;2023-05-07T03:47:31;52.40;;;28.48;;
22026;SDS011;11177;50.966;10.070;2023-05-07T03:49:58;51.20;;;28.65;;
22026;SDS011;11177;50.966;10.070;2023-05-07T03:52:26;55.25;;;28.58;;
22026;SDS011;11177;50.966;10.070;2023-05-07T03:54:53;53.60;;;27.35;;
22026;SDS011;11177;50.966;10.070;2023-05-07T03:57:20;51.28;;;27.33;;
22026;SDS011;11177;50.966;10.070;2023-05-07T03:59:47;58.60;;;28.30;;
22026;SDS011;11177;50.966;10.070;2023-05-07T04:02:13;58.78;;;29.48;;
22026;SDS011;11177;50.966;10.070;2023-05-07T04:04:40;54.28;;;28.80;;
22026;SDS011;11177;50.966;10.070;2023-05-07T04:07:07;54.67;;;28.70;;
22026;SDS011;11177;50.966;10.070;2023-05-07T04:09:34;56.33;;;28.58;;
22026;SDS011;11177;50.966;10.070;2023-05-07T04:12:01;58.55;;;29.27;;
22026;SDS011;11177;50.966;10.070;2023-05-07T04:14:27;56.35;;;28.60;;
22026;SDS011;11177;50.966;10.070;2023-05-07T04:16:54;58.42;;;27.95;;
22026;SDS011;11177;50.966;10.070;2023-05-07T04:19:21;55.95;;;29.23;;
22026;SDS011;11177;50.966;10.070;2023-05-07T04:21:48;53.38;;;26.45;;
22026;SDS011;11177;50.966;10.070;2023-05-07T04:24:15;53.70;;;28.13;;
22026;SDS011;11177;50.966;10.070;2023-05-07T04:26:42;57.67;;;27.50;;
22026;SDS011;11177;50.966;10.070;2023-05-07T04:29:09;55.30;;;27.73;;
22026;SDS011;11177;50.966;10.070;2023-05-07T04:31:36;55.20;;;27.90;;
22026;SDS011;11177;50.966;10.070;2023-05-07T04:34:02;58.75;;;27.40;;
22026;SDS011;11177;50.966;10.070;2023-05-07T04:36:30;52.22;;;27.10;;
22026;SDS011;11177;50.966;10.070;2023-05-07T04:38:57;57.03;;;27.48;;
22026;SDS011;11177;50.966;10.070;2023-05-07T04:41:24;54.45;;;26.73;;
22026;SDS011;11177;50.966;10.070;2023-05-07T04:43:51;50.35;;;26.70;;
22026;SDS011;11177;50.966;10.070;2023-05-07T04:46:18;53.85;;;25.98;;
22026;SDS011;11177;50.966;10.070;2023-05-07T04:48:44;53.97;;;26.65;;
22026;SDS011;11177;50.966;10.070;2023-05-07T04:51:11;48.70;;;26.90;;
22026;SDS011;11177;50.966;10.070;2023-05-07T04:53:38;50.00;;;25.27;;
22026;SDS011;11177;50.966;10.070;2023-05-07T04:56:05;52.25;;;25.63;;
22026;SDS011;11177;50.966;10.070;2023-05-07T04:58:32;53.17;;;25.35;;
22026;SDS011;11177;50.966;10.070;2023-05-07T05:00:59;52.60;;;25.67;;
22026;SDS011;11177;50.966;10.070;2023-05-07T05:03:27;52.03;;;26.08;;
22026;SDS011;11177;50.966;10.070;2023-05-07T05:05:54;47.47;;;24.63;;
22026;SDS011;11177;50.966;10.070;2023-05-07T05:08:21;49.10;;;24.00;;
22026;SDS011;11177;50.966;10.070;2023-05-07T05:10:47;50.92;;;24.90;;
22026;SDS011;11177;50.966;10.070;2023-05-07T05:13:16;51.65;;;24.85;;
22026;SDS011;11177;50.966;10.070;2023-05-07T05:15:43;51.95;;;25.33;;
22026;SDS011;11177;50.966;10.070;2023-05-07T05:18:10;49.92;;;25.50;;
22026;SDS011;11177;50.966;10.070;2023-05-07T05:20:37;52.58;;;25.52;;
22026;SDS011;11177;50.966;10.070;2023-05-07T05:23:03;54.15;;;24.77;;
22026;SDS011;11177;50.966;10.070;2023-05-07T05:25:30;51.22;;;25.20;;
22026;SDS011;11177;50.966;10.070;2023-05-07T05:27:57;54.22;;;26.30;;
22026;SDS011;11177;50.966;10.070;2023-05-07T05:30:24;46.75;;;23.17;;
22026;SDS011;11177;50.966;10.070;2023-05-07T05:32:50;52.72;;;24.25;;
22026;SDS011;11177;50.966;10.070;2023-05-07T05:35:17;53.13;;;25.17;;
22026;SDS011;11177;50.966;10.070;2023-05-07T05:37:44;52.47;;;25.02;;
22026;SDS011;11177;50.966;10.070;2023-05-07T05:40:11;51.70;;;24.95;;
22026;SDS011;11177;50.966;10.070;2023-05-07T05:42:38;56.05;;;26.23;;
22026;SDS011;11177;50.966;10.070;2023-05-07T05:45:06;59.40;;;26.05;;
22026;SDS011;11177;50.966;10.070;2023-05-07T05:47:34;60.28;;;26.02;;
22026;SDS011;11177;50.966;10.070;2023-05-07T05:50:00;56.00;;;26.13;;
22026;SDS011;11177;50.966;10.070;2023-05-07T05:52:27;55.65;;;26.25;;
22026;SDS011;11177;50.966;10.070;2023-05-07T05:54:54;57.17;;;25.80;;
22026;SDS011;11177;50.966;10.070;2023-05-07T05:57:21;63.47;;;27.02;;
22026;SDS011;11177;50.966;10.070;2023-05-07T05:59:48;62.08;;;27.30;;
22026;SDS011;11177;50.966;10.070;2023-05-07T06:02:14;62.78;;;27.10;;
22026;SDS011;11177;50.966;10.070;2023-05-07T06:04:41;60.60;;;25.48;;
22026;SDS011;11177;50.966;10.070;2023-05-07T06:07:09;61.58;;;27.63;;
22026;SDS011;11177;50.966;10.070;2023-05-07T06:09:36;60.42;;;26.83;;
22026;SDS011;11177;50.966;10.070;2023-05-07T06:12:02;62.15;;;26.65;;
22026;SDS011;11177;50.966;10.070;2023-05-07T06:14:29;56.97;;;26.73;;
22026;SDS011;11177;50.966;10.070;2023-05-07T06:16:56;59.03;;;26.98;;
22026;SDS011;11177;50.966;10.070;2023-05-07T06:19:23;56.35;;;25.98;;
22026;SDS011;11177;50.966;10.070;2023-05-07T06:21:50;59.67;;;26.92;;
22026;SDS011;11177;50.966;10.070;2023-05-07T06:24:17;58.38;;;27.25;;
22026;SDS011;11177;50.966;10.070;2023-05-07T06:26:44;59.38;;;26.38;;
22026;SDS011;11177;50.966;10.070;2023-05-07T06:29:11;57.97;;;27.08;;
22026;SDS011;11177;50.966;10.070;2023-05-07T06:31:38;54.00;;;24.30;;
22026;SDS011;11177;50.966;10.070;2023-05-07T06:34:05;55.58;;;25.67;;
22026;SDS011;11177;50.966;10.070;2023-05-07T06:36:31;55.50;;;26.33;;
22026;SDS011;11177;50.966;10.070;2023-05-07T06:38:58;53.35;;;25.98;;
22026;SDS011;11177;50.966;10.070;2023-05-07T06:41:25;56.35;;;25.00;;
22026;SDS011;11177;50.966;10.070;2023-05-07T06:43:52;47.88;;;23.20;;
22026;SDS011;11177;50.966;10.070;2023-05-07T06:46:18;49.50;;;23.90;;
22026;SDS011;11177;50.966;10.070;2023-05-07T06:48:45;49.60;;;24.17;;
22026;SDS011;11177;50.966;10.070;2023-05-07T06:51:12;47.25;;;24.08;;
22026;SDS011;11177;50.966;10.070;2023-05-07T06:53:39;46.00;;;23.88;;
22026;SDS011;11177;50.966;10.070;2023-05-07T06:56:06;39.95;;;21.48;;
22026;SDS011;11177;50.966;10.070;2023-05-07T06:58:32;43.08;;;22.20;;
22026;SDS011;11177;50.966;10.070;2023-05-07T07:00:59;41.35;;;22.27;;
22026;SDS011;11177;50.966;10.070;2023-05-07T07:03:26;44.72;;;22.33;;
22026;SDS011;11177;50.966;10.070;2023-05-07T07:05:53;39.17;;;20.75;;
22026;SDS011;11177;50.966;10.070;2023-05-07T07:08:21;39.33;;;20.05;;
22026;SDS011;11177;50.966;10.070;2023-05-07T07:10:48;38.03;;;19.58;;
22026;SDS011;11177;50.966;10.070;2023-05-07T07:13:16;35.00;;;19.80;;
22026;SDS011;11177;50.966;10.070;2023-05-07T07:15:43;35.47;;;19.58;;
22026;SDS011;11177;50.966;10.070;2023-05-07T07:18:09;33.90;;;19.20;;
22026;SDS011;11177;50.966;10.070;2023-05-07T07:20:36;33.05;;;19.30;;
22026;SDS011;11177;50.966;10.070;2023-05-07T07:23:03;33.05;;;18.13;;
22026;SDS011;11177;50.966;10.070;2023-05-07T07:25:30;30.40;;;17.70;;
22026;SDS011;11177;50.966;10.070;2023-05-07T07:27:57;35.65;;;18.88;;
22026;SDS011;11177;50.966;10.070;2023-05-07T07:30:24;29.55;;;17.42;;
22026;SDS011;11177;50.966;10.070;2023-05-07T07:32:53;30.90;;;17.90;;
22026;SDS011;11177;50.966;10.070;2023-05-07T07:35:20;28.40;;;16.95;;
22026;SDS011;11177;50.966;10.070;2023-05-07T07:37:47;29.10;;;16.30;;
22026;SDS011;11177;50.966;10.070;2023-05-07T07:40:16;27.90;;;16.17;;
22026;SDS011;11177;50.966;10.070;2023-05-07T07:42:43;27.63;;;16.60;;
22026;SDS011;11177;50.966;10.070;2023-05-07T07:45:10;25.85;;;15.00;;
22026;SDS011;11177;50.966;10.070;2023-05-07T07:47:37;27.63;;;16.45;;
22026;SDS011;11177;50.966;10.070;2023-05-07T07:50:04;27.25;;;16.08;;
22026;SDS011;11177;50.966;10.070;2023-05-07T07:52:32;26.42;;;15.70;;
22026;SDS011;11177;50.966;10.070;2023-05-07T07:54:59;27.10;;;15.93;;
22026;SDS011;11177;50.966;10.070;2023-05-07T07:57:26;25.35;;;14.95;;
22026;SDS011;11177;50.966;10.070;2023-05-07T07:59:52;25.52;;;14.73;;
22026;SDS011;11177;50.966;10.070;2023-05-07T08:02:19;25.17;;;14.88;;
22026;SDS011;11177;50.966;10.070;2023-05-07T08:04:47;23.92;;;14.43;;
22026;SDS011;11177;50.966;10.070;2023-05-07T08:07:13;26.27;;;15.43;;
22026;SDS011;11177;50.966;10.070;2023-05-07T08:09:40;23.17;;;14.93;;
22026;SDS011;11177;50.966;10.070;2023-05-07T08:12:07;24.65;;;14.27;;
22026;SDS011;11177;50.966;10.070;2023-05-07T08:14:34;24.35;;;14.50;;
22026;SDS011;11177;50.966;10.070;2023-05-07T08:17:01;23.48;;;13.70;;
22026;SDS011;11177;50.966;10.070;2023-05-07T08:19:28;22.90;;;13.98;;
22026;SDS011;11177;50.966;10.070;2023-05-07T08:21:54;22.30;;;13.82;;
22026;SDS011;11177;50.966;10.070;2023-05-07T08:24:21;23.70;;;13.80;;
22026;SDS011;11177;50.966;10.070;2023-05-07T08:26:48;25.38;;;14.93;;
22026;SDS011;11177;50.966;10.070;2023-05-07T08:29:16;21.80;;;13.80;;
22026;SDS011;11177;50.966;10.070;2023-05-07T08:31:42;23.83;;;14.82;;
22026;SDS011;11177;50.966;10.070;2023-05-07T08:34:09;23.05;;;14.07;;
22026;SDS011;11177;50.966;10.070;2023-05-07T08:36:36;22.27;;;13.32;;
22026;SDS011;11177;50.966;10.070;2023-05-07T08:39:03;26.15;;;14.95;;
22026;SDS011;11177;50.966;10.070;2023-05-07T08:41:30;21.88;;;13.48;;
22026;SDS011;11177;50.966;10.070;2023-05-07T08:43:58;23.10;;;14.32;;
22026;SDS011;11177;50.966;10.070;2023-05-07T08:46:26;24.55;;;14.23;;
22026;SDS011;11177;50.966;10.070;2023-05-07T08:48:58;22.88;;;13.60;;
22026;SDS011;11177;50.966;10.070;2023-05-07T08:51:24;22.75;;;13.48;;
22026;SDS011;11177;50.966;10.070;2023-05-07T08:53:52;21.38;;;13.60;;
22026;SDS011;11177;50.966;10.070;2023-05-07T08:56:18;25.88;;;14.43;;
22026;SDS011;11177;50.966;10.070;2023-05-07T08:58:48;23.52;;;13.48;;
22026;SDS011;11177;50.966;10.070;2023-05-07T09:01:15;26.02;;;14.57;;
22026;SDS011;11177;50.966;10.070;2023-05-07T09:03:46;25.38;;;14.60;;
22026;SDS011;11177;50.966;10.070;2023-05-07T09:06:13;25.92;;;14.90;;
22026;SDS011;11177;50.966;10.070;2023-05-07T09:08:40;25.17;;;14.02;;
22026;SDS011;11177;50.966;10.070;2023-05-07T09:11:07;27.15;;;15.68;;
22026;SDS011;11177;50.966;10.070;2023-05-07T09:13:34;24.60;;;14.55;;
22026;SDS011;11177;50.966;10.070;2023-05-07T09:16:11;25.05;;;15.23;;
22026;SDS011;11177;50.966;10.070;2023-05-07T09:18:42;24.30;;;14.45;;
22026;SDS011;11177;50.966;10.070;2023-05-07T09:21:09;23.77;;;14.65;;
22026;SDS011;11177;50.966;10.070;2023-05-07T09:23:42;23.90;;;13.80;;
22026;SDS011;11177;50.966;10.070;2023-05-07T09:26:09;24.95;;;15.05;;
22026;SDS011;11177;50.966;10.070;2023-05-07T09:28:38;30.38;;;18.00;;
22026;SDS011;11177;50.966;10.070;2023-05-07T09:31:07;24.27;;;14.57;;
22026;SDS011;11177;50.966;10.070;2023-05-07T09:33:34;25.55;;;15.65;;
22026;SDS011;11177;50.966;10.070;2023-05-07T09:36:02;22.08;;;13.70;;
22026;SDS011;11177;50.966;10.070;2023-05-07T09:38:29;23.95;;;13.90;;
22026;SDS011;11177;50.966;10.070;2023-05-07T09:41:03;25.00;;;14.07;;
22026;SDS011;11177;50.966;10.070;2023-05-07T09:43:32;24.00;;;14.27;;
22026;SDS011;11177;50.966;10.070;2023-05-07T09:46:02;23.95;;;14.35;;
22026;SDS011;11177;50.966;10.070;2023-05-07T09:48:31;26.58;;;14.52;;
22026;SDS011;11177;50.966;10.070;2023-05-07T09:51:00;23.35;;;15.18;;
22026;SDS011;11177;50.966;10.070;2023-05-07T09:53:29;23.48;;;14.65;;
22026;SDS011;11177;50.966;10.070;2023-05-07T09:55:57;23.08;;;13.80;;
22026;SDS011;11177;50.966;10.070;2023-05-07T09:58:25;24.30;;;14.48;;
22026;SDS011;11177;50.966;10.070;2023-05-07T10:00:52;27.08;;;14.38;;
22026;SDS011;11177;50.966;10.070;2023-05-07T10:03:19;24.60;;;14.63;;
22026;SDS011;11177;50.966;10.070;2023-05-07T10:05:46;26.67;;;14.85;;
22026;SDS011;11177;50.966;10.070;2023-05-07T10:08:13;23.42;;;14.65;;
22026;SDS011;11177;50.966;10.070;2023-05-07T10:10:43;24.48;;;14.48;;
22026;SDS011;11177;50.966;10.070;2023-05-07T10:13:10;23.35;;;14.65;;
22026;SDS011;11177;50.966;10.070;2023-05-07T10:15:38;23.00;;;13.90;;
22026;SDS011;11177;50.966;10.070;2023-05-07T10:18:04;24.55;;;14.55;;
22026;SDS011;11177;50.966;10.070;2023-05-07T10:20:33;21.05;;;13.82;;
22026;SDS011;11177;50.966;10.070;2023-05-07T10:23:00;21.30;;;14.52;;
22026;SDS011;11177;50.966;10.070;2023-05-07T10:25:31;23.77;;;14.05;;
22026;SDS011;11177;50.966;10.070;2023-05-07T10:27:59;20.20;;;13.68;;
22026;SDS011;11177;50.966;10.070;2023-05-07T10:30:48;22.27;;;13.73;;
22026;SDS011;11177;50.966;10.070;2023-05-07T10:33:23;21.77;;;13.65;;
22026;SDS011;11177;50.966;10.070;2023-05-07T10:35:55;25.13;;;14.30;;
22026;SDS011;11177;50.966;10.070;2023-05-07T10:38:24;24.88;;;14.55;;
22026;SDS011;11177;50.966;10.070;2023-05-07T10:40:52;21.63;;;13.15;;
22026;SDS011;11177;50.966;10.070;2023-05-07T10:43:19;23.45;;;14.90;;
22026;SDS011;11177;50.966;10.070;2023-05-07T10:52:10;23.08;;;14.27;;
22026;SDS011;11177;50.966;10.070;2023-05-07T10:54:47;23.23;;;14.95;;
22026;SDS011;11177;50.966;10.070;2023-05-07T10:57:33;22.55;;;14.95;;
22026;SDS011;11177;50.966;10.070;2023-05-07T11:00:04;19.10;;;13.25;;
22026;SDS011;11177;50.966;10.070;2023-05-07T11:03:11;23.17;;;14.80;;
22026;SDS011;11177;50.966;10.070;2023-05-07T11:05:38;21.15;;;13.77;;
22026;SDS011;11177;50.966;10.070;2023-05-07T11:08:05;21.80;;;14.45;;
22026;SDS011;11177;50.966;10.070;2023-05-07T11:10:51;19.48;;;13.60;;
22026;SDS011;11177;50.966;10.070;2023-05-07T11:16:22;21.48;;;13.75;;
22026;SDS011;11177;50.966;10.070;2023-05-07T11:18:51;20.58;;;13.38;;
22026;SDS011;11177;50.966;10.070;2023-05-07T11:24:06;19.05;;;13.55;;
22026;SDS011;11177;50.966;10.070;2023-05-07T11:26:49;22.98;;;14.13;;
22026;SDS011;11177;50.966;10.070;2023-05-07T11:29:17;22.27;;;13.95;;
22026;SDS011;11177;50.966;10.070;2023-05-07T11:31:50;20.25;;;14.00;;
22026;SDS011;11177;50.966;10.070;2023-05-07T11:34:22;21.15;;;14.75;;
22026;SDS011;11177;50.966;10.070;2023-05-07T11:36:50;22.40;;;14.07;;
22026;SDS011;11177;50.966;10.070;2023-05-07T11:39:27;23.25;;;13.70;;
22026;SDS011;11177;50.966;10.070;2023-05-07T11:42:02;20.90;;;13.90;;
22026;SDS011;11177;50.966;10.070;2023-05-07T11:44:42;20.98;;;13.52;;
22026;SDS011;11177;50.966;10.070;2023-05-07T11:47:18;20.90;;;13.23;;
22026;SDS011;11177;50.966;10.070;2023-05-07T11:49:52;19.13;;;13.05;;
22026;SDS011;11177;50.966;10.070;2023-05-07T11:52:20;19.73;;;13.10;;
22026;SDS011;11177;50.966;10.070;2023-05-07T11:54:48;20.98;;;13.32;;
22026;SDS011;11177;50.966;10.070;2023-05-07T11:57:19;17.58;;;12.38;;
22026;SDS011;11177;50.966;10.070;2023-05-07T11:59:46;21.85;;;13.52;;
22026;SDS011;11177;50.966;10.070;2023-05-07T12:02:15;20.42;;;13.45;;
22026;SDS011;11177;50.966;10.070;2023-05-07T12:04:42;18.02;;;12.43;;
22026;SDS011;11177;50.966;10.070;2023-05-07T12:07:17;17.60;;;12.52;;
22026;SDS011;11177;50.966;10.070;2023-05-07T12:09:45;18.33;;;13.50;;
22026;SDS011;11177;50.966;10.070;2023-05-07T12:12:13;16.92;;;11.95;;
22026;SDS011;11177;50.966;10.070;2023-05-07T12:14:44;16.65;;;12.65;;
22026;SDS011;11177;50.966;10.070;2023-05-07T12:17:12;17.15;;;12.00;;
22026;SDS011;11177;50.966;10.070;2023-05-07T12:19:41;18.55;;;11.88;;
22026;SDS011;11177;50.966;10.070;2023-05-07T12:22:10;16.33;;;12.30;;
22026;SDS011;11177;50.966;10.070;2023-05-07T12:24:44;16.73;;;12.07;;
22026;SDS011;11177;50.966;10.070;2023-05-07T12:27:14;16.98;;;11.95;;
22026;SDS011;11177;50.966;10.070;2023-05-07T12:29:49;16.00;;;11.85;;
22026;SDS011;11177;50.966;10.070;2023-05-07T12:32:17;17.30;;;11.52;;
22026;SDS011;11177;50.966;10.070;2023-05-07T12:34:45;16.38;;;12.18;;
22026;SDS011;11177;50.966;10.070;2023-05-07T12:37:12;18.48;;;12.60;;
22026;SDS011;11177;50.966;10.070;2023-05-07T12:39:48;18.02;;;12.55;;
22026;SDS011;11177;50.966;10.070;2023-05-07T12:42:16;17.92;;;12.00;;
22026;SDS011;11177;50.966;10.070;2023-05-07T12:44:50;15.77;;;11.98;;
22026;SDS011;11177;50.966;10.070;2023-05-07T12:47:17;16.00;;;11.80;;
22026;SDS011;11177;50.966;10.070;2023-05-07T12:49:44;17.42;;;12.80;;
22026;SDS011;11177;50.966;10.070;2023-05-07T12:52:12;17.38;;;11.90;;
22026;SDS011;11177;50.966;10.070;2023-05-07T12:54:39;17.33;;;12.45;;
22026;SDS011;11177;50.966;10.070;2023-05-07T12:57:07;16.42;;;12.43;;
22026;SDS011;11177;50.966;10.070;2023-05-07T12:59:39;16.10;;;11.77;;
22026;SDS011;11177;50.966;10.070;2023-05-07T13:02:07;15.77;;;12.13;;
22026;SDS011;11177;50.966;10.070;2023-05-07T13:04:35;15.05;;;12.18;;
22026;SDS011;11177;50.966;10.070;2023-05-07T13:07:02;19.00;;;12.35;;
22026;SDS011;11177;50.966;10.070;2023-05-07T13:09:29;17.65;;;12.48;;
22026;SDS011;11177;50.966;10.070;2023-05-07T13:11:57;19.95;;;13.27;;
22026;SDS011;11177;50.966;10.070;2023-05-07T13:14:27;17.13;;;12.77;;
22026;SDS011;11177;50.966;10.070;2023-05-07T13:16:54;17.17;;;13.43;;
22026;SDS011;11177;50.966;10.070;2023-05-07T13:19:21;16.95;;;12.90;;
22026;SDS011;11177;50.966;10.070;2023-05-07T13:21:48;16.80;;;12.50;;
22026;SDS011;11177;50.966;10.070;2023-05-07T13:24:16;19.17;;;13.18;;
22026;SDS011;11177;50.966;10.070;2023-05-07T13:26:42;18.05;;;13.07;;
22026;SDS011;11177;50.966;10.070;2023-05-07T13:29:11;17.35;;;12.32;;
22026;SDS011;11177;50.966;10.070;2023-05-07T13:31:38;18.98;;;13.27;;
22026;SDS011;11177;50.966;10.070;2023-05-07T13:34:09;17.58;;;13.13;;
22026;SDS011;11177;50.966;10.070;2023-05-07T13:36:36;16.58;;;12.75;;
22026;SDS011;11177;50.966;10.070;2023-05-07T13:39:06;18.35;;;12.40;;
22026;SDS011;11177;50.966;10.070;2023-05-07T13:41:33;17.00;;;12.38;;
22026;SDS011;11177;50.966;10.070;2023-05-07T13:43:59;16.33;;;12.13;;
22026;SDS011;11177;50.966;10.070;2023-05-07T13:46:26;17.23;;;12.98;;
22026;SDS011;11177;50.966;10.070;2023-05-07T13:48:53;14.30;;;11.18;;
22026;SDS011;11177;50.966;10.070;2023-05-07T13:51:20;16.63;;;12.73;;
22026;SDS011;11177;50.966;10.070;2023-05-07T13:53:47;21.02;;;12.68;;
22026;SDS011;11177;50.966;10.070;2023-05-07T13:56:14;16.27;;;12.18;;
22026;SDS011;11177;50.966;10.070;2023-05-07T13:58:41;15.95;;;11.63;;
22026;SDS011;11177;50.966;10.070;2023-05-07T14:01:24;15.55;;;11.85;;
22026;SDS011;11177;50.966;10.070;2023-05-07T14:03:51;16.85;;;12.73;;
22026;SDS011;11177;50.966;10.070;2023-05-07T14:06:18;16.13;;;12.00;;
22026;SDS011;11177;50.966;10.070;2023-05-07T14:08:45;18.20;;;12.20;;
22026;SDS011;11177;50.966;10.070;2023-05-07T14:11:12;18.15;;;12.90;;
22026;SDS011;11177;50.966;10.070;2023-05-07T14:13:38;16.70;;;12.00;;
22026;SDS011;11177;50.966;10.070;2023-05-07T14:16:05;18.63;;;12.15;;
22026;SDS011;11177;50.966;10.070;2023-05-07T14:18:32;14.65;;;11.52;;
22026;SDS011;11177;50.966;10.070;2023-05-07T14:21:00;19.75;;;12.27;;
22026;SDS011;11177;50.966;10.070;2023-05-07T14:23:27;15.93;;;11.80;;
22026;SDS011;11177;50.966;10.070;2023-05-07T14:25:54;16.95;;;11.70;;
22026;SDS011;11177;50.966;10.070;2023-05-07T14:28:23;16.70;;;11.82;;